METAR AND TAF INFORMATION
METAR FOR PAYA
PAYA 270553Z AUTO 07009KT 10SM OVC055 M04/M13 A2976 RMK AO2 SLP077 T10441128 11028 21044 58043 TSNO $
PAYA 270453Z AUTO 06009KT 10SM OVC060 M04/M12 A2981 RMK AO2 SLP094 T10441122 TSNO $
PAYA 270353Z AUTO 07008KT 10SM OVC060 M04/M12 A2985 RMK AO2 SLP108 T10391122 TSNO $
PAYA 270529Z 2706/2806 09011KT P6SM SKC
FM270900 09014G24KT P6SM OVC050 WS020/13030KT
FM271600 09015G30KT 4SM -SN OVC015 WS020/11035KT
FM280000 08015G25KT 5SM -SN OVC025 WS020/10025KT AMD LTD TO CLD VIS AND WIND

 AIRPORT MAP

 RUNWAY INFORMATION
Runway 02 Runway length 6475 ft Runway width 150 ft
Runway elevation 18 ft Runway displaced threshold 0 ft Runway heading 45
Runway 20 Runway length 6475 ft Runway width 150 ft
Runway elevation 30 ft Runway displaced threshold 0 ft Runway heading 225
Runway 11 Runway length 7745 ft Runway width 150 ft
Runway elevation 32 ft Runway displaced threshold 0 ft Runway heading 135
Runway 29 Runway length 7745 ft Runway width 150 ft
Runway elevation 19 ft Runway displaced threshold 0 ft Runway heading 315

 AIRPORT FREQUENCIES

 AIRPORT NEAR NAVIGATION AIDS
Type NDB Name Ocean Cape Frequency 385 KHZ
Type VOR-DME Name Yakutat Frequency 113300 KHZ

-